createdAt,value
2023-01-11T00:00:47.329Z,13.00
2023-01-11T00:03:14.793Z,12.68
2023-01-11T00:05:42.924Z,9.60
2023-01-11T00:08:10.370Z,12.52
2023-01-11T00:10:36.878Z,13.27
2023-01-11T00:13:03.786Z,12.68
2023-01-11T00:15:31.333Z,12.10
2023-01-11T00:17:57.859Z,12.18
2023-01-11T00:20:24.908Z,12.90
2023-01-11T00:22:51.427Z,14.00
2023-01-11T00:25:18.369Z,10.18
2023-01-11T00:27:44.877Z,10.80
2023-01-11T00:30:12.270Z,11.70
2023-01-11T00:32:38.799Z,13.10
2023-01-11T00:35:05.815Z,11.63
2023-01-11T00:37:32.559Z,11.73
2023-01-11T00:39:59.021Z,12.75
2023-01-11T00:42:28.555Z,12.38
2023-01-11T00:44:55.082Z,15.07
2023-01-11T00:47:21.586Z,12.83
2023-01-11T00:49:48.099Z,13.50
2023-01-11T00:52:14.848Z,13.32
2023-01-11T00:54:42.160Z,13.10
2023-01-11T00:57:09.201Z,15.73
2023-01-11T00:59:38.999Z,17.63
2023-01-11T01:02:05.615Z,14.18
2023-01-11T01:04:32.570Z,13.80
2023-01-11T01:06:59.055Z,16.55
2023-01-11T01:09:26.065Z,16.33
2023-01-11T01:11:52.744Z,16.37
2023-01-11T01:14:19.213Z,14.07
2023-01-11T01:16:47.254Z,16.05
2023-01-11T01:19:14.134Z,14.75
2023-01-11T01:21:40.768Z,13.95
2023-01-11T01:24:07.485Z,14.07
2023-01-11T01:26:33.953Z,16.13
2023-01-11T01:29:01.077Z,11.85
2023-01-11T01:31:27.695Z,13.25
2023-01-11T01:33:54.325Z,13.30
2023-01-11T01:36:20.728Z,12.20
2023-01-11T01:38:47.226Z,11.13
2023-01-11T01:41:14.148Z,11.02
2023-01-11T01:43:51.723Z,10.70
2023-01-11T01:46:20.676Z,11.88
2023-01-11T01:48:52.847Z,11.97
2023-01-11T01:51:28.009Z,11.90
2023-01-11T01:53:58.616Z,12.02
2023-01-11T01:56:35.793Z,11.05
2023-01-11T01:59:10.829Z,11.73
2023-01-11T02:01:37.383Z,11.70
2023-01-11T02:04:10.418Z,11.18
2023-01-11T02:06:37.446Z,9.70
2023-01-11T02:09:16.089Z,9.95
2023-01-11T02:11:43.558Z,10.18
2023-01-11T02:14:14.319Z,11.10
2023-01-11T02:16:40.875Z,11.27
2023-01-11T02:19:11.916Z,11.82
2023-01-11T02:22:08.807Z,12.60
2023-01-11T02:25:09.187Z,10.60
2023-01-11T02:28:02.885Z,11.90
2023-01-11T02:30:51.112Z,12.30
2023-01-11T02:33:29.093Z,12.80
2023-01-11T02:36:12.833Z,9.57
2023-01-11T02:38:43.787Z,9.82
2023-01-11T02:41:35.072Z,9.23
2023-01-11T02:44:12.771Z,9.82
2023-01-11T02:46:50.983Z,9.25
2023-01-11T02:49:35.496Z,10.70
2023-01-11T02:52:27.064Z,9.32
2023-01-11T02:54:58.244Z,7.83
2023-01-11T02:57:27.050Z,10.55
2023-01-11T02:59:54.937Z,12.38
2023-01-11T03:02:21.499Z,9.52
2023-01-11T03:04:47.905Z,8.93
2023-01-11T03:07:21.223Z,8.10
2023-01-11T03:09:47.622Z,9.70
2023-01-11T03:12:32.103Z,10.48
2023-01-11T03:15:17.179Z,9.23
2023-01-11T03:17:49.662Z,12.30
2023-01-11T03:20:30.818Z,11.67
2023-01-11T03:23:12.302Z,11.30
2023-01-11T03:25:54.684Z,10.45
2023-01-11T03:28:36.380Z,10.27
2023-01-11T03:31:30.338Z,11.30
2023-01-11T03:34:11.773Z,9.90
2023-01-11T03:37:22.677Z,10.23
2023-01-11T03:39:57.658Z,9.52
2023-01-11T03:42:27.422Z,10.32
2023-01-11T03:44:57.414Z,9.85
2023-01-11T03:47:28.469Z,7.80
2023-01-11T03:50:01.947Z,9.00
2023-01-11T03:52:35.781Z,8.20
2023-01-11T03:55:05.921Z,8.43
2023-01-11T03:57:36.093Z,9.48
2023-01-11T04:00:04.611Z,9.37
2023-01-11T04:02:38.983Z,9.00
2023-01-11T04:05:07.115Z,9.80
2023-01-11T04:07:33.567Z,10.15
2023-01-11T04:10:00.160Z,11.15
2023-01-11T04:12:26.766Z,14.10
2023-01-11T04:14:53.401Z,13.02
2023-01-11T04:17:20.094Z,12.60
2023-01-11T04:19:46.504Z,13.77
2023-01-11T04:22:13.210Z,13.82
2023-01-11T04:24:39.664Z,15.17
2023-01-11T04:27:06.226Z,14.65
2023-01-11T04:29:32.737Z,13.20
2023-01-11T04:31:59.159Z,14.82
2023-01-11T04:34:25.548Z,12.30
2023-01-11T04:36:52.063Z,16.00
2023-01-11T04:39:18.531Z,13.23
2023-01-11T04:41:44.986Z,13.98
2023-01-11T04:44:11.732Z,14.43
2023-01-11T04:46:38.163Z,12.80
2023-01-11T04:49:04.623Z,13.70
2023-01-11T04:51:31.112Z,13.13
2023-01-11T04:53:57.542Z,13.02
2023-01-11T04:56:24.083Z,12.63
2023-01-11T04:58:50.500Z,17.05
2023-01-11T05:01:18.869Z,20.57
2023-01-11T05:03:45.868Z,15.55
2023-01-11T05:06:13.109Z,15.57
2023-01-11T05:08:39.674Z,16.10
2023-01-11T05:11:07.810Z,17.05
2023-01-11T05:13:34.641Z,17.63
2023-01-11T05:16:01.049Z,19.17
2023-01-11T05:18:27.501Z,20.13
2023-01-11T05:20:53.940Z,18.38
2023-01-11T05:23:20.382Z,20.08
2023-01-11T05:25:46.820Z,22.47
2023-01-11T05:28:13.276Z,18.10
2023-01-11T05:30:39.683Z,26.50
2023-01-11T05:33:06.121Z,17.75
2023-01-11T05:35:32.704Z,17.80
2023-01-11T05:37:59.087Z,21.90
2023-01-11T05:40:25.512Z,22.98
2023-01-11T05:42:51.935Z,19.85
2023-01-11T05:45:18.363Z,23.35
2023-01-11T05:47:44.810Z,24.50
2023-01-11T05:50:11.293Z,22.70
2023-01-11T05:52:37.710Z,24.15
2023-01-11T05:55:04.572Z,21.08
2023-01-11T05:57:30.964Z,21.30
2023-01-11T05:59:57.420Z,23.02
2023-01-11T06:02:23.993Z,25.47
2023-01-11T06:04:50.550Z,28.52
2023-01-11T06:07:16.980Z,24.92
2023-01-11T06:09:43.411Z,25.90
2023-01-11T06:12:09.850Z,25.90
2023-01-11T06:14:38.166Z,29.80
2023-01-11T06:17:04.784Z,21.23
2023-01-11T06:19:31.262Z,26.38
2023-01-11T06:21:57.700Z,23.17
2023-01-11T06:24:24.149Z,25.65
2023-01-11T06:26:53.728Z,25.00
2023-01-11T06:29:20.289Z,23.17
2023-01-11T06:31:46.753Z,22.33
2023-01-11T06:34:13.227Z,24.13
2023-01-11T06:36:39.641Z,19.70
2023-01-11T06:39:06.078Z,22.20
2023-01-11T06:41:32.724Z,20.08
2023-01-11T06:43:59.286Z,21.02
2023-01-11T06:46:27.575Z,21.20
2023-01-11T06:48:55.493Z,26.40
2023-01-11T06:51:22.016Z,21.70
2023-01-11T06:53:48.525Z,23.08
2023-01-11T06:56:17.030Z,23.13
2023-01-11T06:58:45.579Z,17.38
2023-01-11T07:01:13.668Z,22.00
2023-01-11T07:03:40.226Z,15.07
2023-01-11T07:06:06.835Z,25.02
2023-01-11T07:08:33.354Z,17.15
2023-01-11T07:10:59.935Z,19.52
2023-01-11T07:13:26.525Z,22.23
2023-01-11T07:15:57.426Z,21.13
2023-01-11T07:18:23.901Z,25.30
2023-01-11T07:20:51.633Z,19.95
2023-01-11T07:23:18.340Z,20.20
2023-01-11T07:25:44.776Z,21.60
2023-01-11T07:28:11.353Z,16.80
2023-01-11T07:30:56.111Z,21.63
2023-01-11T07:33:24.235Z,17.38
2023-01-11T07:35:50.725Z,17.48
2023-01-11T07:38:17.218Z,21.30
2023-01-11T07:40:43.674Z,17.13
2023-01-11T07:43:12.947Z,15.82
2023-01-11T07:45:45.735Z,17.58
2023-01-11T07:48:13.254Z,16.50
2023-01-11T07:50:42.827Z,15.00
2023-01-11T07:53:10.870Z,16.77
2023-01-11T07:55:37.662Z,15.52
2023-01-11T07:58:04.152Z,16.92
2023-01-11T08:00:30.696Z,20.60
2023-01-11T08:02:57.378Z,16.25
2023-01-11T08:05:24.949Z,18.97
2023-01-11T08:07:51.447Z,19.13
2023-01-11T08:10:18.229Z,18.65
2023-01-11T08:12:51.493Z,22.40
2023-01-11T08:15:18.148Z,18.48
2023-01-11T08:17:44.679Z,16.80
2023-01-11T08:20:11.292Z,17.52
2023-01-11T08:22:37.941Z,17.98
2023-01-11T08:25:04.645Z,27.38
2023-01-11T08:27:31.180Z,16.83
2023-01-11T08:29:57.844Z,17.33
2023-01-11T08:32:28.003Z,18.08
2023-01-11T08:34:54.525Z,16.33
2023-01-11T08:37:20.955Z,19.92
2023-01-11T08:39:47.486Z,20.05
2023-01-11T08:42:14.194Z,19.53
2023-01-11T08:44:40.662Z,16.25
2023-01-11T08:47:07.131Z,17.58
2023-01-11T08:49:33.620Z,17.58
2023-01-11T08:52:00.124Z,22.77
2023-01-11T08:54:26.663Z,18.30
2023-01-11T08:56:53.115Z,18.88
2023-01-11T08:59:19.566Z,16.83
2023-01-11T09:01:46.091Z,17.77
2023-01-11T09:04:24.381Z,19.55
2023-01-11T09:06:52.924Z,20.17
2023-01-11T09:09:19.513Z,16.77
2023-01-11T09:11:45.970Z,16.48
2023-01-11T09:14:12.642Z,21.20
2023-01-11T09:16:39.114Z,16.83
2023-01-11T09:19:05.599Z,18.53
2023-01-11T09:21:32.104Z,21.40
2023-01-11T09:23:58.643Z,21.20
2023-01-11T09:26:25.163Z,23.38
2023-01-11T09:28:51.740Z,14.82
2023-01-11T09:31:18.299Z,17.00
2023-01-11T09:33:44.771Z,17.95
2023-01-11T09:36:11.348Z,18.20
2023-01-11T09:38:37.846Z,21.08
2023-01-11T09:41:21.010Z,21.77
2023-01-11T09:44:05.570Z,14.83
2023-01-11T09:46:33.372Z,19.13
2023-01-11T09:49:00.076Z,19.40
2023-01-11T09:51:35.373Z,19.15
2023-01-11T09:54:02.873Z,16.02
2023-01-11T09:56:37.322Z,22.90
2023-01-11T09:59:28.352Z,18.50
2023-01-11T10:02:17.828Z,18.77
2023-01-11T10:04:55.182Z,14.15
2023-01-11T10:07:43.523Z,18.48
2023-01-11T10:18:39.108Z,14.40
2023-01-11T10:19:53.929Z,19.38
2023-01-11T10:22:28.866Z,15.52
2023-01-11T10:24:59.042Z,18.97
2023-01-11T10:27:33.287Z,17.00
2023-01-11T10:30:06.349Z,18.10
2023-01-11T10:32:41.295Z,14.25
2023-01-11T10:35:18.467Z,18.75
2023-01-11T10:37:48.352Z,16.07
2023-01-11T10:40:14.736Z,16.35
2023-01-11T10:42:57.982Z,17.23
2023-01-11T10:45:35.796Z,20.55
2023-01-11T10:48:20.549Z,16.80
2023-01-11T10:51:13.100Z,15.13
2023-01-11T10:53:47.677Z,15.95
2023-01-11T10:56:36.009Z,17.88
2023-01-11T10:59:40.140Z,16.15
2023-01-11T11:02:37.253Z,18.23
2023-01-11T11:05:24.127Z,22.80
2023-01-11T11:08:04.656Z,18.13
2023-01-11T11:10:37.291Z,19.20
2023-01-11T11:13:17.558Z,19.27
2023-01-11T11:16:08.144Z,14.95
2023-01-11T11:18:34.863Z,21.53
2023-01-11T11:21:06.819Z,19.98
2023-01-11T11:23:35.071Z,17.73
2023-01-11T11:26:04.217Z,19.17
2023-01-11T11:28:32.846Z,19.83
2023-01-11T11:31:03.926Z,19.87
2023-01-11T11:33:39.168Z,18.95
2023-01-11T11:36:07.362Z,16.98
2023-01-11T11:38:41.330Z,21.65
2023-01-11T11:41:13.888Z,17.73
2023-01-11T11:43:46.134Z,21.17
2023-01-11T11:46:19.434Z,17.33
2023-01-11T11:49:18.357Z,18.92
2023-01-11T11:51:47.059Z,18.02
2023-01-11T11:54:32.639Z,14.93
2023-01-11T11:57:14.503Z,17.57
2023-01-11T11:59:46.053Z,20.35
2023-01-11T12:02:28.041Z,16.40
2023-01-11T12:04:57.215Z,22.10
2023-01-11T12:07:49.715Z,17.15
2023-01-11T12:10:23.511Z,15.63
2023-01-11T12:12:53.066Z,18.42
2023-01-11T12:15:25.523Z,15.52
2023-01-11T12:17:52.044Z,18.10
2023-01-11T12:20:39.494Z,16.15
2023-01-11T12:23:26.214Z,15.60
2023-01-11T12:26:11.624Z,16.30
2023-01-11T12:28:46.867Z,18.98
2023-01-11T12:31:28.683Z,16.40
2023-01-11T12:34:17.323Z,24.65
2023-01-11T12:36:58.903Z,16.47
2023-01-11T12:39:30.398Z,18.83
2023-01-11T12:42:07.364Z,19.48
2023-01-11T12:44:54.030Z,16.42
2023-01-11T12:47:39.847Z,19.58
2023-01-11T12:50:19.369Z,17.43
2023-01-11T12:53:09.102Z,22.60
2023-01-11T12:55:45.820Z,18.90
2023-01-11T12:58:20.159Z,25.08
2023-01-11T13:01:09.336Z,18.23
2023-01-11T13:03:57.271Z,17.73
2023-01-11T13:06:29.708Z,19.75
2023-01-11T13:09:29.494Z,15.40
2023-01-11T13:12:04.906Z,15.57
2023-01-11T13:14:46.529Z,17.80
2023-01-11T13:17:31.832Z,19.77
2023-01-11T13:20:37.127Z,17.05
2023-01-11T13:23:26.144Z,15.55
2023-01-11T13:25:55.272Z,21.65
2023-01-11T13:28:38.899Z,18.85
2023-01-11T13:31:10.422Z,18.03
2023-01-11T13:33:40.763Z,18.23
2023-01-11T13:36:22.635Z,20.50
2023-01-11T13:38:58.962Z,17.33
2023-01-11T13:41:48.818Z,15.13
2023-01-11T13:44:22.519Z,26.43
2023-01-11T13:46:53.866Z,14.85
2023-01-11T13:49:44.248Z,15.73
2023-01-11T13:52:16.206Z,14.35
2023-01-11T13:54:45.616Z,16.02
2023-01-11T13:57:23.320Z,17.80
2023-01-11T13:59:55.053Z,14.45
2023-01-11T14:02:32.464Z,17.35
2023-01-11T14:05:06.959Z,14.73
2023-01-11T14:07:51.493Z,13.65
2023-01-11T14:10:47.093Z,12.63
2023-01-11T14:13:31.808Z,19.20
2023-01-11T14:16:05.673Z,13.95
2023-01-11T14:19:00.547Z,17.70
2023-01-11T14:22:05.161Z,13.68
2023-01-11T14:24:36.811Z,17.27
2023-01-11T14:27:40.255Z,16.42
2023-01-11T14:30:28.932Z,19.75
2023-01-11T14:33:23.813Z,14.05
2023-01-11T14:36:02.306Z,13.48
2023-01-11T14:38:41.012Z,14.97
2023-01-11T14:41:29.191Z,16.52
2023-01-11T14:44:11.340Z,9.57
2023-01-11T14:47:17.661Z,14.77
2023-01-11T14:49:52.240Z,16.02
2023-01-11T14:52:34.587Z,11.80
2023-01-11T14:55:15.983Z,13.73
2023-01-11T14:57:44.509Z,14.90
2023-01-11T15:00:16.978Z,14.20
2023-01-11T15:02:43.533Z,13.65
2023-01-11T15:05:11.847Z,12.50
2023-01-11T15:07:41.400Z,16.85
2023-01-11T15:10:29.262Z,14.95
2023-01-11T15:12:56.974Z,11.82
2023-01-11T15:15:27.755Z,11.73
2023-01-11T15:17:56.799Z,11.63
2023-01-11T15:20:24.518Z,10.38
2023-01-11T15:23:00.433Z,13.70
2023-01-11T15:25:34.810Z,13.98
2023-01-11T15:28:04.975Z,12.77
2023-01-11T15:30:31.365Z,14.23
2023-01-11T15:33:16.727Z,19.95
2023-01-11T15:35:55.500Z,12.43
2023-01-11T15:38:24.715Z,16.35
2023-01-11T15:40:53.424Z,12.57
2023-01-11T15:43:45.687Z,14.10
2023-01-11T15:46:36.225Z,14.75
2023-01-11T15:49:21.103Z,13.43
2023-01-11T15:52:14.981Z,13.18
2023-01-11T15:54:56.652Z,12.27
2023-01-11T15:57:26.310Z,18.23
2023-01-11T15:59:55.723Z,12.13
2023-01-11T16:02:44.172Z,11.25
2023-01-11T16:05:21.733Z,13.93
2023-01-11T16:08:05.895Z,16.27
2023-01-11T16:10:45.208Z,12.17
2023-01-11T16:13:14.503Z,16.33
2023-01-11T16:16:02.451Z,13.77
2023-01-11T16:18:36.997Z,13.63
2023-01-11T16:21:23.757Z,17.33
2023-01-11T16:23:50.348Z,13.20
2023-01-11T16:26:20.029Z,14.68
2023-01-11T16:28:52.170Z,15.82
2023-01-11T16:31:19.314Z,12.23
2023-01-11T16:33:47.565Z,13.27
2023-01-11T16:36:20.742Z,13.80
2023-01-11T16:39:04.286Z,16.98
2023-01-11T16:41:45.080Z,17.85
2023-01-11T16:44:44.449Z,13.07
2023-01-11T16:47:12.178Z,17.73
2023-01-11T16:49:40.477Z,16.87
2023-01-11T16:52:28.811Z,18.80
2023-01-11T16:54:58.081Z,17.33
2023-01-11T16:57:32.979Z,18.40
2023-01-11T17:00:01.998Z,11.13
2023-01-11T17:02:30.613Z,15.20
2023-01-11T17:04:57.136Z,13.65
2023-01-11T17:07:30.618Z,17.05
2023-01-11T17:10:19.028Z,13.93
2023-01-11T17:12:48.427Z,16.55
2023-01-11T17:15:29.195Z,17.57
2023-01-11T17:17:55.823Z,16.50
2023-01-11T17:20:27.712Z,16.02
2023-01-11T17:22:54.560Z,14.45
2023-01-11T17:25:29.598Z,14.02
2023-01-11T17:28:06.844Z,16.73
2023-01-11T17:30:34.310Z,12.32
2023-01-11T17:33:00.957Z,15.65
2023-01-11T17:35:33.172Z,17.00
2023-01-11T17:38:04.848Z,15.38
2023-01-11T17:40:33.617Z,14.20
2023-01-11T17:43:14.969Z,21.38
2023-01-11T17:45:42.382Z,13.80
2023-01-11T17:48:14.426Z,17.10
2023-01-11T17:50:48.136Z,21.67
2023-01-11T17:53:21.132Z,17.60
2023-01-11T17:55:52.297Z,16.08
2023-01-11T17:58:23.692Z,15.43
2023-01-11T18:01:05.537Z,15.20
2023-01-11T18:03:55.024Z,17.58
2023-01-11T18:06:27.562Z,16.67
2023-01-11T18:08:56.057Z,15.07
2023-01-11T18:11:41.853Z,19.90
2023-01-11T18:14:19.305Z,12.65
2023-01-11T18:16:55.568Z,16.98
2023-01-11T18:19:30.936Z,13.93
2023-01-11T18:21:57.415Z,15.23
2023-01-11T18:24:33.585Z,16.17
2023-01-11T18:27:14.205Z,13.18
2023-01-11T18:29:40.645Z,17.13
2023-01-11T18:32:11.665Z,15.97
2023-01-11T18:34:38.381Z,15.98
2023-01-11T18:37:05.673Z,14.98
2023-01-11T18:39:35.542Z,16.02
2023-01-11T18:42:04.400Z,14.95
2023-01-11T18:44:30.870Z,17.87
2023-01-11T18:46:57.382Z,19.00
2023-01-11T18:49:23.804Z,16.90
2023-01-11T18:51:50.269Z,16.85
2023-01-11T18:54:18.095Z,21.25
2023-01-11T18:56:44.571Z,13.47
2023-01-11T18:59:11.018Z,18.33
2023-01-11T19:01:52.796Z,12.80
2023-01-11T19:04:22.746Z,15.73
2023-01-11T19:06:49.202Z,15.10
2023-01-11T19:09:15.645Z,17.50
2023-01-11T19:11:42.128Z,16.92
2023-01-11T19:14:10.097Z,18.92
2023-01-11T19:16:36.585Z,19.45
2023-01-11T19:19:03.034Z,19.85
2023-01-11T19:21:29.662Z,16.67
2023-01-11T19:23:57.953Z,11.38
2023-01-11T19:26:24.511Z,18.08
2023-01-11T19:28:51.051Z,19.50
2023-01-11T19:31:17.611Z,18.35
2023-01-11T19:33:44.107Z,18.70
2023-01-11T19:36:10.799Z,16.40
2023-01-11T19:38:37.357Z,22.52
2023-01-11T19:41:06.892Z,20.95
2023-01-11T19:43:33.980Z,17.92
2023-01-11T19:46:00.591Z,17.03
2023-01-11T19:48:27.082Z,22.60
2023-01-11T19:51:02.054Z,20.23
2023-01-11T19:53:32.538Z,18.42
2023-01-11T19:56:07.267Z,21.15
2023-01-11T19:58:36.815Z,23.10
2023-01-11T20:01:11.216Z,19.45
2023-01-11T20:03:37.821Z,20.10
2023-01-11T20:06:06.063Z,18.65
2023-01-11T20:08:32.552Z,18.30
2023-01-11T20:11:05.120Z,23.27
2023-01-11T20:13:31.581Z,18.65
2023-01-11T20:15:58.028Z,17.13
2023-01-11T20:18:24.560Z,17.33
2023-01-11T20:20:57.548Z,16.80
2023-01-11T20:23:24.065Z,15.87
2023-01-11T20:25:50.700Z,17.02
2023-01-11T20:28:17.152Z,23.50
2023-01-11T20:30:43.592Z,17.42
2023-01-11T20:33:10.169Z,18.58
2023-01-11T20:35:37.116Z,18.63
2023-01-11T20:38:03.544Z,15.93
2023-01-11T20:40:29.987Z,17.98
2023-01-11T20:42:56.470Z,18.33
2023-01-11T20:45:22.919Z,14.10
2023-01-11T20:47:49.343Z,16.93
2023-01-11T20:50:15.883Z,17.55
2023-01-11T20:52:42.276Z,17.40
2023-01-11T20:55:09.306Z,17.50
2023-01-11T20:57:35.740Z,18.02
2023-01-11T21:00:02.165Z,19.47
2023-01-11T21:02:28.625Z,17.88
2023-01-11T21:04:55.064Z,17.05
2023-01-11T21:07:21.554Z,18.63
2023-01-11T21:09:47.969Z,20.40
2023-01-11T21:12:14.399Z,19.27
2023-01-11T21:14:40.836Z,20.58
2023-01-11T21:17:07.248Z,15.27
2023-01-11T21:19:33.710Z,18.60
2023-01-11T21:22:00.197Z,11.85
2023-01-11T21:24:26.818Z,14.57
2023-01-11T21:26:53.245Z,12.45
2023-01-11T21:29:19.702Z,13.20
2023-01-11T21:31:46.612Z,11.20
2023-01-11T21:34:14.037Z,6.95
2023-01-11T21:36:42.534Z,10.63
2023-01-11T21:39:13.402Z,10.52
2023-01-11T21:41:39.939Z,7.13
2023-01-11T21:44:07.743Z,10.13
2023-01-11T21:46:34.822Z,10.80
2023-01-11T21:49:01.364Z,11.60
2023-01-11T21:51:27.796Z,12.25
2023-01-11T21:53:54.255Z,12.15
2023-01-11T21:56:20.819Z,14.38
2023-01-11T21:58:47.283Z,11.32
2023-01-11T22:01:13.844Z,9.50
2023-01-11T22:03:40.521Z,14.20
2023-01-11T22:06:07.103Z,12.90
2023-01-11T22:08:35.093Z,11.52
2023-01-11T22:11:04.399Z,10.23
2023-01-11T22:13:32.293Z,8.43
2023-01-11T22:16:13.058Z,6.47
2023-01-11T22:18:39.798Z,8.63
2023-01-11T22:21:12.339Z,8.95
2023-01-11T22:23:39.364Z,7.45
2023-01-11T22:26:07.886Z,9.73
2023-01-11T22:28:34.478Z,6.15
2023-01-11T22:31:05.968Z,7.55
2023-01-11T22:33:32.418Z,6.80
2023-01-11T22:35:58.928Z,8.57
2023-01-11T22:38:25.376Z,7.67
2023-01-11T22:40:51.817Z,7.53
2023-01-11T22:43:18.335Z,7.45
2023-01-11T22:45:56.243Z,7.75
2023-01-11T22:48:22.737Z,13.20
2023-01-11T22:50:49.376Z,8.30
2023-01-11T22:53:16.018Z,8.18
2023-01-11T22:55:42.501Z,8.98
2023-01-11T22:58:08.955Z,13.13
2023-01-11T23:00:35.420Z,12.23
2023-01-11T23:03:01.882Z,13.10
2023-01-11T23:05:28.634Z,10.88
2023-01-11T23:07:55.098Z,10.73
2023-01-11T23:10:21.899Z,10.60
2023-01-11T23:12:48.389Z,11.82
2023-01-11T23:15:14.898Z,12.73
2023-01-11T23:17:41.355Z,12.68
2023-01-11T23:20:08.555Z,11.80
2023-01-11T23:22:34.994Z,9.75
2023-01-11T23:25:01.397Z,14.05
2023-01-11T23:27:27.834Z,14.07
2023-01-11T23:29:54.302Z,16.45
2023-01-11T23:32:20.835Z,15.35
2023-01-11T23:34:47.323Z,18.17
2023-01-11T23:37:13.775Z,18.05
2023-01-11T23:39:40.215Z,15.40
2023-01-11T23:42:06.645Z,16.80
2023-01-11T23:44:33.131Z,16.77
2023-01-11T23:46:59.604Z,16.90
2023-01-11T23:49:26.758Z,21.25
2023-01-11T23:51:54.002Z,19.37
2023-01-11T23:54:20.636Z,21.73
2023-01-11T23:56:47.267Z,19.75
2023-01-11T23:59:14.286Z,20.90
